| Piloto: | GLD1794 Kevin T. | Aeronave: | C182 RG II | Distância: | 81NM |
| Origem: | LPHR | Destino: | LPLA | Duração: | 0.80 |
| Validação: | Validado | Tipo: | Charter | Matrícula: | PT-GLD |
| ZFW: | 2656 | Block Fuel/Init FOB | 86/64 | Combustível em Voo | 86 |
| Passageiros: | 3 | Carga: | 75 | Alternativo: | LPPD |
| Hora da Decolagem: | 1251 | Velocidade de Cruzeiro: | 136 | Nível de Voo: | FL500 |
| Regra Visual: | VFR | ICAO da Aeronave: | C182 | Unidade de Peso: | Kg |
| Data: | 02/05/2026 | Observação: | GOLD ACARS | Rede: | VATSIM |
| Acidentou?: | Não | Comentários do Validador: | Pontuação do Voo | 85 |
| ROTA | VELA1E VELAS DCT NOTMA DCT LACTA DCT |
| REMARKS | OPR/GOLD VIRTUAL AIRLINES PER/C RMK/FROM LPHR RMK/PIC GLD1794 RMK/EM TREINAMENTO VFR |
Para entender como cada item é pontuado, consulte as regras de avaliação.
| Vento durante o pouso: | 25º/9 kt | Proa durante o pouso: | 130 |
| V/S do Pouso: | -115 ft/min | IAS do Pouso: | 49 kt |
| Força G no pouso: | 1.096 G | Bank no pouso: | -0.41 |
| Pitch no Pouso | 6.45 | Flaps no Pouso | 100 |
| Nav Lights | ON | Landing Lights | ON |
| Beacon Lights | ON | Strobe Lights | OFF |
| DATA | EVENTO | IAS | ALTITUDE |
|---|---|---|---|
| 2026-05-02 12:51:24 | GOLD ACARS VERSION 3.3.6.9 | 0 | 0 |
| 2026-05-02 12:51:24 | BCN LIGHTS ON | 0 | 0 |
| 2026-05-02 12:51:24 | BOARDING | 1 | 111 |
| 2026-05-02 12:51:24 | FLAP 66% | 1 | 111 |
| 2026-05-02 12:51:30 | STARTING ENGINE 1 | 1 | 111 |
| 2026-05-02 12:51:33 | TAXI LIGHTS ON | 1 | 111 |
| 2026-05-02 12:51:34 | LND LIGHTS ON | 1 | 111 |
| 2026-05-02 12:52:52 | TAXI TO THE RWY | 4 | 111 |
| 2026-05-02 12:53:46 | CLIMBING | 69 | 114 |
| 2026-05-02 12:53:50 | GEAR UP | 70 | 161 |
| 2026-05-02 12:53:55 | FLAP 33% | 71 | 216 |
| 2026-05-02 12:54:02 | AP ENGAGED | 71 | 290 |
| 2026-05-02 12:54:24 | FLAP 0% | 86 | 588 |
| 2026-05-02 12:58:32 | CRUISE | 91 | 4989 |
| 2026-05-02 13:25:40 | DESCEND | 133 | 4991 |
| 2026-05-02 13:32:19 | FLAP 33% | 78 | 1153 |
| 2026-05-02 13:32:22 | GEAR DOWN | 72 | 1147 |
| 2026-05-02 13:32:35 | FLAP 66% | 63 | 1064 |
| 2026-05-02 13:32:37 | FLAP 100% | 62 | 1027 |
| 2026-05-02 13:32:44 | STALL | 50 | 986 |
| 2026-05-02 13:32:48 | RECOVER FROM STALL | 49 | 955 |
| 2026-05-02 13:32:51 | AP DISENGAGED | 51 | 947 |
| 2026-05-02 13:36:01 | LANDED AIRPORT [LPLA] | 49 | 186 |
| 2026-05-02 13:36:01 | LANDED - VS: -115 ft/min | 49 | 185 |
| 2026-05-02 13:36:23 | TAXI TO THE GATE | 29 | 186 |
| 2026-05-02 13:36:54 | FLAP 66% | 15 | 185 |
| 2026-05-02 13:36:54 | FLAP 0% | 15 | 185 |
| 2026-05-02 13:37:04 | LND LIGHTS OFF | 18 | 184 |
| 2026-05-02 13:38:26 | AT THE GATE | 0 | 184 |
| 2026-05-02 13:38:32 | TAXI LIGHTS OFF | 0 | 184 |
| 2026-05-02 13:38:35 | STOPPING ENGINE 1 | 0 | 184 |
| 2026-05-02 13:39:15 | FLIGHT FINISHED | 0 | 184 |
| 2026-05-02 12:51:24 | GOLD ACARS VERSION 3.3.6.9 | 0 | 0 |
| 2026-05-02 12:51:24 | BCN LIGHTS ON | 0 | 0 |
| 2026-05-02 12:51:24 | BOARDING | 1 | 111 |
| 2026-05-02 12:51:24 | FLAP 66% | 1 | 111 |
| 2026-05-02 12:51:30 | STARTING ENGINE 1 | 1 | 111 |
| 2026-05-02 12:51:33 | TAXI LIGHTS ON | 1 | 111 |
| 2026-05-02 12:51:34 | LND LIGHTS ON | 1 | 111 |
| 2026-05-02 12:52:52 | TAXI TO THE RWY | 4 | 111 |
| 2026-05-02 12:53:46 | CLIMBING | 69 | 114 |
| 2026-05-02 12:53:50 | GEAR UP | 70 | 161 |
| 2026-05-02 12:53:55 | FLAP 33% | 71 | 216 |
| 2026-05-02 12:54:02 | AP ENGAGED | 71 | 290 |
| 2026-05-02 12:54:24 | FLAP 0% | 86 | 588 |
| 2026-05-02 12:58:32 | CRUISE | 91 | 4989 |
| 2026-05-02 13:25:40 | DESCEND | 133 | 4991 |
| 2026-05-02 13:32:19 | FLAP 33% | 78 | 1153 |
| 2026-05-02 13:32:22 | GEAR DOWN | 72 | 1147 |
| 2026-05-02 13:32:35 | FLAP 66% | 63 | 1064 |
| 2026-05-02 13:32:37 | FLAP 100% | 62 | 1027 |
| 2026-05-02 13:32:44 | STALL | 50 | 986 |
| 2026-05-02 13:32:48 | RECOVER FROM STALL | 49 | 955 |
| 2026-05-02 13:32:51 | AP DISENGAGED | 51 | 947 |
| 2026-05-02 13:36:01 | LANDED AIRPORT [LPLA] | 49 | 186 |
| 2026-05-02 13:36:01 | LANDED - VS: -115 ft/min | 49 | 185 |
| 2026-05-02 13:36:23 | TAXI TO THE GATE | 29 | 186 |
| 2026-05-02 13:36:54 | FLAP 66% | 15 | 185 |
| 2026-05-02 13:36:54 | FLAP 0% | 15 | 185 |
| 2026-05-02 13:37:04 | LND LIGHTS OFF | 18 | 184 |
| 2026-05-02 13:38:26 | AT THE GATE | 0 | 184 |
| 2026-05-02 13:38:32 | TAXI LIGHTS OFF | 0 | 184 |
| 2026-05-02 13:38:35 | STOPPING ENGINE 1 | 0 | 184 |
| 2026-05-02 13:39:15 | FLIGHT FINISHED | 0 | 184 |
| 2026-05-02 13:39:29 | LANDED NOT IN THE PLANNED AIRPORT [LPLA] - [lat: 38,7685396768629] - [long: -27,0939137416795] | 0 | 184 |
| 2026-05-02 13:39:29 | FLIGHT FINISHED | 0 | 184 |
| 2026-05-02 13:44:49 | LND LIGHTS ON | 0 | 184 |
| 2026-05-02 13:44:49 | STB LIGHTS ON | 0 | 184 |
| 2026-05-02 12:51:24 | GOLD ACARS VERSION 3.3.6.9 | 0 | 0 |
| 2026-05-02 12:51:24 | BCN LIGHTS ON | 0 | 0 |
| 2026-05-02 12:51:24 | BOARDING | 1 | 111 |
| 2026-05-02 12:51:24 | FLAP 66% | 1 | 111 |
| 2026-05-02 12:51:30 | STARTING ENGINE 1 | 1 | 111 |
| 2026-05-02 12:51:33 | TAXI LIGHTS ON | 1 | 111 |
| 2026-05-02 12:51:34 | LND LIGHTS ON | 1 | 111 |
| 2026-05-02 12:52:52 | TAXI TO THE RWY | 4 | 111 |
| 2026-05-02 12:53:46 | CLIMBING | 69 | 114 |
| 2026-05-02 12:53:50 | GEAR UP | 70 | 161 |
| 2026-05-02 12:53:55 | FLAP 33% | 71 | 216 |
| 2026-05-02 12:54:02 | AP ENGAGED | 71 | 290 |
| 2026-05-02 12:54:24 | FLAP 0% | 86 | 588 |
| 2026-05-02 12:58:32 | CRUISE | 91 | 4989 |
| 2026-05-02 13:25:40 | DESCEND | 133 | 4991 |
| 2026-05-02 13:32:19 | FLAP 33% | 78 | 1153 |
| 2026-05-02 13:32:22 | GEAR DOWN | 72 | 1147 |
| 2026-05-02 13:32:35 | FLAP 66% | 63 | 1064 |
| 2026-05-02 13:32:37 | FLAP 100% | 62 | 1027 |
| 2026-05-02 13:32:44 | STALL | 50 | 986 |
| 2026-05-02 13:32:48 | RECOVER FROM STALL | 49 | 955 |
| 2026-05-02 13:32:51 | AP DISENGAGED | 51 | 947 |
| 2026-05-02 13:36:01 | LANDED AIRPORT [LPLA] | 49 | 186 |
| 2026-05-02 13:36:01 | LANDED - VS: -115 ft/min | 49 | 185 |
| 2026-05-02 13:36:23 | TAXI TO THE GATE | 29 | 186 |
| 2026-05-02 13:36:54 | FLAP 66% | 15 | 185 |
| 2026-05-02 13:36:54 | FLAP 0% | 15 | 185 |
| 2026-05-02 13:37:04 | LND LIGHTS OFF | 18 | 184 |
| 2026-05-02 13:38:26 | AT THE GATE | 0 | 184 |
| 2026-05-02 13:38:32 | TAXI LIGHTS OFF | 0 | 184 |
| 2026-05-02 13:38:35 | STOPPING ENGINE 1 | 0 | 184 |
| 2026-05-02 13:39:15 | FLIGHT FINISHED | 0 | 184 |
| 2026-05-02 13:39:29 | LANDED NOT IN THE PLANNED AIRPORT [LPLA] - [lat: 38,7685396768629] - [long: -27,0939137416795] | 0 | 184 |
| 2026-05-02 13:39:29 | FLIGHT FINISHED | 0 | 184 |
| 2026-05-02 13:44:49 | LND LIGHTS ON | 0 | 184 |
| 2026-05-02 13:44:49 | STB LIGHTS ON | 0 | 184 |
| 2026-05-02 12:51:24 | GOLD ACARS VERSION 3.3.6.9 | 0 | 0 |
| 2026-05-02 12:51:24 | BCN LIGHTS ON | 0 | 0 |
| 2026-05-02 12:51:24 | BOARDING | 1 | 111 |
| 2026-05-02 12:51:24 | FLAP 66% | 1 | 111 |
| 2026-05-02 12:51:30 | STARTING ENGINE 1 | 1 | 111 |
| 2026-05-02 12:51:33 | TAXI LIGHTS ON | 1 | 111 |
| 2026-05-02 12:51:34 | LND LIGHTS ON | 1 | 111 |
| 2026-05-02 12:52:52 | TAXI TO THE RWY | 4 | 111 |
| 2026-05-02 12:53:46 | CLIMBING | 69 | 114 |
| 2026-05-02 12:53:50 | GEAR UP | 70 | 161 |
| 2026-05-02 12:53:55 | FLAP 33% | 71 | 216 |
| 2026-05-02 12:54:02 | AP ENGAGED | 71 | 290 |
| 2026-05-02 12:54:24 | FLAP 0% | 86 | 588 |
| 2026-05-02 12:58:32 | CRUISE | 91 | 4989 |
| 2026-05-02 13:25:40 | DESCEND | 133 | 4991 |
| 2026-05-02 13:32:19 | FLAP 33% | 78 | 1153 |
| 2026-05-02 13:32:22 | GEAR DOWN | 72 | 1147 |
| 2026-05-02 13:32:35 | FLAP 66% | 63 | 1064 |
| 2026-05-02 13:32:37 | FLAP 100% | 62 | 1027 |
| 2026-05-02 13:32:44 | STALL | 50 | 986 |
| 2026-05-02 13:32:48 | RECOVER FROM STALL | 49 | 955 |
| 2026-05-02 13:32:51 | AP DISENGAGED | 51 | 947 |
| 2026-05-02 13:36:01 | LANDED AIRPORT [LPLA] | 49 | 186 |
| 2026-05-02 13:36:01 | LANDED - VS: -115 ft/min | 49 | 185 |
| 2026-05-02 13:36:23 | TAXI TO THE GATE | 29 | 186 |
| 2026-05-02 13:36:54 | FLAP 66% | 15 | 185 |
| 2026-05-02 13:36:54 | FLAP 0% | 15 | 185 |
| 2026-05-02 13:37:04 | LND LIGHTS OFF | 18 | 184 |
| 2026-05-02 13:38:26 | AT THE GATE | 0 | 184 |
| 2026-05-02 13:38:32 | TAXI LIGHTS OFF | 0 | 184 |
| 2026-05-02 13:38:35 | STOPPING ENGINE 1 | 0 | 184 |
| 2026-05-02 13:39:15 | FLIGHT FINISHED | 0 | 184 |
| 2026-05-02 13:39:29 | LANDED NOT IN THE PLANNED AIRPORT [LPLA] - [lat: 38,7685396768629] - [long: -27,0939137416795] | 0 | 184 |
| 2026-05-02 13:39:29 | FLIGHT FINISHED | 0 | 184 |
| 2026-05-02 13:44:49 | LND LIGHTS ON | 0 | 184 |
| 2026-05-02 13:44:49 | STB LIGHTS ON | 0 | 184 |
| 2026-05-02 12:51:24 | GOLD ACARS VERSION 3.3.6.9 | 0 | 0 |
| 2026-05-02 12:51:24 | BCN LIGHTS ON | 0 | 0 |
| 2026-05-02 12:51:24 | BOARDING | 1 | 111 |
| 2026-05-02 12:51:24 | FLAP 66% | 1 | 111 |
| 2026-05-02 12:51:30 | STARTING ENGINE 1 | 1 | 111 |
| 2026-05-02 12:51:33 | TAXI LIGHTS ON | 1 | 111 |
| 2026-05-02 12:51:34 | LND LIGHTS ON | 1 | 111 |
| 2026-05-02 12:52:52 | TAXI TO THE RWY | 4 | 111 |
| 2026-05-02 12:53:46 | CLIMBING | 69 | 114 |
| 2026-05-02 12:53:50 | GEAR UP | 70 | 161 |
| 2026-05-02 12:53:55 | FLAP 33% | 71 | 216 |
| 2026-05-02 12:54:02 | AP ENGAGED | 71 | 290 |
| 2026-05-02 12:54:24 | FLAP 0% | 86 | 588 |
| 2026-05-02 12:58:32 | CRUISE | 91 | 4989 |
| 2026-05-02 13:25:40 | DESCEND | 133 | 4991 |
| 2026-05-02 13:32:19 | FLAP 33% | 78 | 1153 |
| 2026-05-02 13:32:22 | GEAR DOWN | 72 | 1147 |
| 2026-05-02 13:32:35 | FLAP 66% | 63 | 1064 |
| 2026-05-02 13:32:37 | FLAP 100% | 62 | 1027 |
| 2026-05-02 13:32:44 | STALL | 50 | 986 |
| 2026-05-02 13:32:48 | RECOVER FROM STALL | 49 | 955 |
| 2026-05-02 13:32:51 | AP DISENGAGED | 51 | 947 |
| 2026-05-02 13:36:01 | LANDED AIRPORT [LPLA] | 49 | 186 |
| 2026-05-02 13:36:01 | LANDED - VS: -115 ft/min | 49 | 185 |
| 2026-05-02 13:36:23 | TAXI TO THE GATE | 29 | 186 |
| 2026-05-02 13:36:54 | FLAP 66% | 15 | 185 |
| 2026-05-02 13:36:54 | FLAP 0% | 15 | 185 |
| 2026-05-02 13:37:04 | LND LIGHTS OFF | 18 | 184 |
| 2026-05-02 13:38:26 | AT THE GATE | 0 | 184 |
| 2026-05-02 13:38:32 | TAXI LIGHTS OFF | 0 | 184 |
| 2026-05-02 13:38:35 | STOPPING ENGINE 1 | 0 | 184 |
| 2026-05-02 13:39:15 | FLIGHT FINISHED | 0 | 184 |
| 2026-05-02 13:39:29 | LANDED NOT IN THE PLANNED AIRPORT [LPLA] - [lat: 38,7685396768629] - [long: -27,0939137416795] | 0 | 184 |
| 2026-05-02 13:39:29 | FLIGHT FINISHED | 0 | 184 |
| 2026-05-02 13:44:49 | LND LIGHTS ON | 0 | 184 |
| 2026-05-02 13:44:49 | STB LIGHTS ON | 0 | 184 |
| 2026-05-02 12:51:24 | GOLD ACARS VERSION 3.3.6.9 | 0 | 0 |
| 2026-05-02 12:51:24 | BCN LIGHTS ON | 0 | 0 |
| 2026-05-02 12:51:24 | BOARDING | 1 | 111 |
| 2026-05-02 12:51:24 | FLAP 66% | 1 | 111 |
| 2026-05-02 12:51:30 | STARTING ENGINE 1 | 1 | 111 |
| 2026-05-02 12:51:33 | TAXI LIGHTS ON | 1 | 111 |
| 2026-05-02 12:51:34 | LND LIGHTS ON | 1 | 111 |
| 2026-05-02 12:52:52 | TAXI TO THE RWY | 4 | 111 |
| 2026-05-02 12:53:46 | CLIMBING | 69 | 114 |
| 2026-05-02 12:53:50 | GEAR UP | 70 | 161 |
| 2026-05-02 12:53:55 | FLAP 33% | 71 | 216 |
| 2026-05-02 12:54:02 | AP ENGAGED | 71 | 290 |
| 2026-05-02 12:54:24 | FLAP 0% | 86 | 588 |
| 2026-05-02 12:58:32 | CRUISE | 91 | 4989 |
| 2026-05-02 13:25:40 | DESCEND | 133 | 4991 |
| 2026-05-02 13:32:19 | FLAP 33% | 78 | 1153 |
| 2026-05-02 13:32:22 | GEAR DOWN | 72 | 1147 |
| 2026-05-02 13:32:35 | FLAP 66% | 63 | 1064 |
| 2026-05-02 13:32:37 | FLAP 100% | 62 | 1027 |
| 2026-05-02 13:32:44 | STALL | 50 | 986 |
| 2026-05-02 13:32:48 | RECOVER FROM STALL | 49 | 955 |
| 2026-05-02 13:32:51 | AP DISENGAGED | 51 | 947 |
| 2026-05-02 13:36:01 | LANDED AIRPORT [LPLA] | 49 | 186 |
| 2026-05-02 13:36:01 | LANDED - VS: -115 ft/min | 49 | 185 |
| 2026-05-02 13:36:23 | TAXI TO THE GATE | 29 | 186 |
| 2026-05-02 13:36:54 | FLAP 66% | 15 | 185 |
| 2026-05-02 13:36:54 | FLAP 0% | 15 | 185 |
| 2026-05-02 13:37:04 | LND LIGHTS OFF | 18 | 184 |
| 2026-05-02 13:38:26 | AT THE GATE | 0 | 184 |
| 2026-05-02 13:38:32 | TAXI LIGHTS OFF | 0 | 184 |
| 2026-05-02 13:38:35 | STOPPING ENGINE 1 | 0 | 184 |
| 2026-05-02 13:39:15 | FLIGHT FINISHED | 0 | 184 |
| 2026-05-02 13:39:29 | LANDED NOT IN THE PLANNED AIRPORT [LPLA] - [lat: 38,7685396768629] - [long: -27,0939137416795] | 0 | 184 |
| 2026-05-02 13:39:29 | FLIGHT FINISHED | 0 | 184 |
| 2026-05-02 13:44:49 | LND LIGHTS ON | 0 | 184 |
| 2026-05-02 13:44:49 | STB LIGHTS ON | 0 | 184 |
| DATA | IAS | GS | ALTITUDE | COMBUSTÍVEL USADO | OAT | FASE DO VOO |
|---|---|---|---|---|---|---|
| 2026-05-02 13:55:34 | 0 | 0 | 26 | 0 | 27 | TAXI TO THE GATE |